createdAt,value
2023-03-27T00:00:29.624Z,2.00
2023-03-27T00:05:32.422Z,1.00
2023-03-27T00:10:36.939Z,1.60
2023-03-27T00:15:40.343Z,1.80
2023-03-27T00:20:44.330Z,2.00
2023-03-27T00:25:50.389Z,1.00
2023-03-27T00:30:53.390Z,2.00
2023-03-27T00:35:56.427Z,2.00
2023-03-27T00:41:00.824Z,1.20
2023-03-27T00:46:05.825Z,3.00
2023-03-27T00:51:09.115Z,1.80
2023-03-27T00:56:13.323Z,1.00
2023-03-27T01:01:17.358Z,1.40
2023-03-27T01:06:20.284Z,1.00
2023-03-27T01:11:30.970Z,2.00
2023-03-27T01:16:37.154Z,2.00
2023-03-27T01:22:02.524Z,2.00
2023-03-27T01:27:11.358Z,1.00
2023-03-27T01:32:59.766Z,1.00
2023-03-27T01:38:16.914Z,1.20
2023-03-27T01:43:23.605Z,1.00
2023-03-27T01:48:27.668Z,1.80
2023-03-27T01:53:31.573Z,1.00
2023-03-27T01:58:37.478Z,1.00
2023-03-27T02:03:41.585Z,1.00
2023-03-27T02:08:46.773Z,1.20
2023-03-27T02:14:01.404Z,2.00
2023-03-27T02:19:08.236Z,1.00
2023-03-27T02:24:11.099Z,1.00
2023-03-27T02:29:34.356Z,1.00
2023-03-27T02:34:56.494Z,1.80
2023-03-27T02:40:01.617Z,1.00
2023-03-27T02:45:10.205Z,1.00
2023-03-27T02:50:15.693Z,1.00
2023-03-27T02:55:20.134Z,1.00
2023-03-27T03:00:25.763Z,1.00
2023-03-27T03:05:41.127Z,1.00
2023-03-27T03:10:45.161Z,0.80
2023-03-27T03:15:50.688Z,1.00
2023-03-27T03:20:55.081Z,1.00
2023-03-27T03:25:58.213Z,1.00
2023-03-27T03:31:10.914Z,1.00
2023-03-27T03:36:14.977Z,1.00
2023-03-27T03:41:18.769Z,1.00
2023-03-27T03:46:23.700Z,1.00
2023-03-27T03:51:26.981Z,1.80
2023-03-27T03:56:30.892Z,0.60
2023-03-27T04:01:35.138Z,1.00
2023-03-27T04:06:40.440Z,1.00
2023-03-27T04:11:43.452Z,1.00
2023-03-27T04:17:27.216Z,1.00
2023-03-27T04:22:31.581Z,0.80
2023-03-27T04:27:35.623Z,1.60
2023-03-27T04:33:00.202Z,1.00
2023-03-27T04:38:15.329Z,1.00
2023-03-27T04:43:21.793Z,0.40
2023-03-27T04:48:27.410Z,0.40
2023-03-27T04:53:32.300Z,1.00
2023-03-27T04:58:37.650Z,1.00
2023-03-27T05:03:49.054Z,1.00
2023-03-27T05:09:00.441Z,1.00
2023-03-27T05:14:07.300Z,1.00
2023-03-27T05:19:13.772Z,1.00
2023-03-27T05:24:20.921Z,0.20
2023-03-27T05:29:25.863Z,1.00
2023-03-27T05:34:38.905Z,1.60
2023-03-27T05:39:46.729Z,1.00
2023-03-27T05:44:49.699Z,1.00
2023-03-27T05:49:54.097Z,1.00
2023-03-27T05:54:57.666Z,1.00
2023-03-27T06:00:01.229Z,1.00
2023-03-27T06:05:13.278Z,1.00
2023-03-27T06:10:20.420Z,0.60
2023-03-27T06:15:28.895Z,1.00
2023-03-27T06:20:51.952Z,1.00
2023-03-27T06:25:55.863Z,0.60
2023-03-27T06:31:00.507Z,1.00
2023-03-27T06:36:18.059Z,1.00
2023-03-27T06:41:23.381Z,1.00
2023-03-27T06:46:49.068Z,1.00
2023-03-27T06:52:01.607Z,1.00
2023-03-27T06:57:06.360Z,0.60
2023-03-27T07:02:23.252Z,0.20
2023-03-27T07:08:11.388Z,1.00
2023-03-27T07:13:24.883Z,0.00
2023-03-27T07:18:27.946Z,1.00
2023-03-27T07:23:33.024Z,1.00
2023-03-27T07:28:45.162Z,0.20
2023-03-27T07:33:48.762Z,1.00
2023-03-27T07:38:53.576Z,1.00
2023-03-27T07:44:00.540Z,1.00
2023-03-27T07:49:11.135Z,0.00
2023-03-27T07:54:16.976Z,0.40
2023-03-27T07:59:24.866Z,1.00
2023-03-27T08:04:29.310Z,0.80
2023-03-27T08:09:40.850Z,1.00
2023-03-27T08:14:46.970Z,1.00
2023-03-27T08:20:00.196Z,1.00
2023-03-27T08:25:05.088Z,1.00
2023-03-27T08:30:10.459Z,1.00
2023-03-27T08:35:16.107Z,0.60
2023-03-27T08:40:25.488Z,0.40
2023-03-27T08:45:42.085Z,0.80
2023-03-27T08:50:46.978Z,1.00
2023-03-27T08:55:54.338Z,1.00
2023-03-27T09:01:15.457Z,0.00
2023-03-27T09:06:25.731Z,2.00
2023-03-27T09:11:38.415Z,2.00
2023-03-27T09:16:48.743Z,2.00
2023-03-27T09:22:05.662Z,1.80
2023-03-27T09:27:27.599Z,2.00
2023-03-27T09:32:37.331Z,2.00
2023-03-27T09:37:40.555Z,1.00
2023-03-27T09:42:45.077Z,2.80
2023-03-27T09:47:55.147Z,2.00
2023-03-27T09:53:09.946Z,1.80
2023-03-27T09:58:29.770Z,2.00
2023-03-27T10:03:37.642Z,1.20
2023-03-27T10:08:42.191Z,38.50
2023-03-27T10:13:52.872Z,67.50
2023-03-27T10:18:59.575Z,94.75
2023-03-27T10:24:05.677Z,150.50
2023-03-27T10:29:30.192Z,168.67
2023-03-27T10:34:37.866Z,222.00
2023-03-27T10:40:09.258Z,276.25
2023-03-27T10:45:21.668Z,327.67
2023-03-27T10:50:32.168Z,354.33
2023-03-27T10:55:44.820Z,355.00
2023-03-27T11:00:53.286Z,369.00
2023-03-27T11:05:56.830Z,358.33
2023-03-27T11:11:09.511Z,343.00
2023-03-27T11:16:21.896Z,330.67
2023-03-27T11:21:45.103Z,327.67
2023-03-27T11:26:57.215Z,313.75
2023-03-27T11:32:06.037Z,294.75
2023-03-27T11:37:20.137Z,280.25
2023-03-27T11:42:24.883Z,260.50
2023-03-27T11:47:47.783Z,251.00
2023-03-27T11:52:59.241Z,248.50
2023-03-27T11:58:27.128Z,236.75
2023-03-27T12:04:00.228Z,58.00
2023-03-27T12:09:36.624Z,33.40
2023-03-27T12:15:03.061Z,134.50
2023-03-27T12:20:17.525Z,144.00
2023-03-27T12:25:35.994Z,204.25
2023-03-27T12:31:04.537Z,239.75
2023-03-27T12:36:11.310Z,262.25
2023-03-27T12:41:21.788Z,346.75
2023-03-27T12:47:08.431Z,431.00
2023-03-27T12:52:15.153Z,459.40
2023-03-27T12:57:25.129Z,439.50
2023-03-27T13:02:48.855Z,431.00
2023-03-27T13:07:56.939Z,371.50
2023-03-27T13:13:32.467Z,362.33
2023-03-27T13:18:50.305Z,330.33
2023-03-27T13:24:07.542Z,337.00
2023-03-27T13:29:16.367Z,297.25
2023-03-27T13:34:29.694Z,275.00
2023-03-27T13:39:42.716Z,285.25
2023-03-27T13:44:54.894Z,269.00
2023-03-27T13:50:14.512Z,266.25
2023-03-27T13:55:36.660Z,244.25
2023-03-27T14:01:22.639Z,239.25
2023-03-27T14:06:47.404Z,227.50
2023-03-27T14:12:03.596Z,220.75
2023-03-27T14:17:37.944Z,215.25
2023-03-27T14:22:44.035Z,197.00
2023-03-27T14:27:51.793Z,152.25
2023-03-27T14:32:55.632Z,56.67
2023-03-27T14:38:01.125Z,109.50
2023-03-27T14:43:15.887Z,103.00
2023-03-27T14:48:22.086Z,109.75
2023-03-27T14:53:27.541Z,107.25
2023-03-27T14:58:46.560Z,101.25
2023-03-27T15:03:51.633Z,96.50
2023-03-27T15:08:58.749Z,97.75
2023-03-27T15:14:29.350Z,97.75
2023-03-27T15:19:34.942Z,100.75
2023-03-27T15:24:39.931Z,104.75
2023-03-27T15:29:44.981Z,78.00
2023-03-27T15:34:49.052Z,84.75
2023-03-27T15:40:28.469Z,92.75
2023-03-27T15:45:43.341Z,89.50
2023-03-27T15:50:56.447Z,87.00
2023-03-27T15:55:59.602Z,85.75
2023-03-27T16:01:18.388Z,84.50
2023-03-27T16:06:28.018Z,85.00
2023-03-27T16:11:41.826Z,81.00
2023-03-27T16:16:46.219Z,77.25
2023-03-27T16:21:55.451Z,50.33
2023-03-27T16:26:58.419Z,61.75
2023-03-27T16:32:02.698Z,65.50
2023-03-27T16:37:05.535Z,63.00
2023-03-27T16:42:11.700Z,61.50
2023-03-27T16:47:16.530Z,61.25
2023-03-27T16:52:19.282Z,61.75
2023-03-27T16:57:22.116Z,60.50
2023-03-27T17:02:26.618Z,58.50
2023-03-27T17:07:29.552Z,61.00
2023-03-27T17:12:32.497Z,61.25
2023-03-27T17:17:36.889Z,59.50
2023-03-27T17:22:39.703Z,57.75
2023-03-27T17:27:42.465Z,58.00
2023-03-27T17:32:46.825Z,58.75
2023-03-27T17:37:49.714Z,57.25
2023-03-27T17:42:52.657Z,57.25
2023-03-27T17:47:57.048Z,55.00
2023-03-27T17:53:00.166Z,56.33
2023-03-27T17:58:09.438Z,55.33
2023-03-27T18:03:14.400Z,53.67
2023-03-27T18:08:17.709Z,54.33
2023-03-27T18:13:20.535Z,54.67
2023-03-27T18:18:26.476Z,52.67
2023-03-27T18:23:29.237Z,54.33
2023-03-27T18:28:32.047Z,51.67
2023-03-27T18:33:36.155Z,55.33
2023-03-27T18:38:39.097Z,53.33
2023-03-27T18:43:41.946Z,52.00
2023-03-27T18:48:46.316Z,51.00
2023-03-27T18:53:50.688Z,53.33
2023-03-27T18:58:53.472Z,50.67
2023-03-27T19:03:58.344Z,50.00
2023-03-27T19:09:01.281Z,54.00
2023-03-27T19:14:04.092Z,48.67
2023-03-27T19:19:34.830Z,49.33
2023-03-27T19:24:57.715Z,50.67
2023-03-27T19:30:00.477Z,46.33
2023-03-27T19:35:05.215Z,46.67
2023-03-27T19:40:10.054Z,48.33
2023-03-27T19:45:13.135Z,47.67
2023-03-27T19:50:17.405Z,46.00
2023-03-27T19:55:27.564Z,47.00
2023-03-27T20:00:32.047Z,45.00
2023-03-27T20:05:38.034Z,46.00
2023-03-27T20:10:41.046Z,44.75
2023-03-27T20:15:47.328Z,43.00
2023-03-27T20:20:51.666Z,45.00
2023-03-27T20:25:55.803Z,43.00
2023-03-27T20:31:03.678Z,42.00
2023-03-27T20:36:08.388Z,41.00
2023-03-27T20:41:15.717Z,40.00
2023-03-27T20:46:18.770Z,41.25
2023-03-27T20:51:24.098Z,36.75
2023-03-27T20:56:27.369Z,38.75
2023-03-27T21:01:30.196Z,35.50
2023-03-27T21:06:34.396Z,34.75
2023-03-27T21:11:37.201Z,32.25
2023-03-27T21:16:40.178Z,35.75
2023-03-27T21:21:44.583Z,31.60
2023-03-27T21:26:47.347Z,33.00
2023-03-27T21:31:50.426Z,32.40
2023-03-27T21:36:54.707Z,30.25
2023-03-27T21:41:57.610Z,30.50
2023-03-27T21:47:00.382Z,28.80
2023-03-27T21:52:04.526Z,30.20
2023-03-27T21:57:07.370Z,28.00
2023-03-27T22:02:10.752Z,29.80
2023-03-27T22:07:14.853Z,28.00
2023-03-27T22:12:17.729Z,26.00
2023-03-27T22:17:20.510Z,27.40
2023-03-27T22:22:24.774Z,24.20
2023-03-27T22:27:27.527Z,25.60
2023-03-27T22:32:30.274Z,24.20
2023-03-27T22:37:35.998Z,23.20
2023-03-27T22:42:38.859Z,27.20
2023-03-27T22:47:41.734Z,24.40
2023-03-27T22:52:45.878Z,24.40
2023-03-27T22:57:48.669Z,21.00
2023-03-27T23:02:51.839Z,21.60
2023-03-27T23:07:56.133Z,21.40
2023-03-27T23:12:58.934Z,22.60
2023-03-27T23:18:01.753Z,23.00
2023-03-27T23:23:05.874Z,21.20
2023-03-27T23:28:08.661Z,20.20
2023-03-27T23:33:12.352Z,22.00
2023-03-27T23:38:16.494Z,20.60
2023-03-27T23:43:19.405Z,20.00
2023-03-27T23:48:22.184Z,20.00
2023-03-27T23:53:27.021Z,20.60
2023-03-27T23:58:32.314Z,16.60
